sensor_id;sensor_type;location;lat;lon;timestamp;P1;durP1;ratioP1;P2;durP2;ratioP2
63499;SDS011;49654;51.142;14.924;2023-04-25T00:01:34;5.10;;;4.00;;
63499;SDS011;49654;51.142;14.924;2023-04-25T00:04:03;4.97;;;4.15;;
63499;SDS011;49654;51.142;14.924;2023-04-25T00:06:31;7.22;;;4.10;;
63499;SDS011;49654;51.142;14.924;2023-04-25T00:08:58;6.10;;;4.13;;
63499;SDS011;49654;51.142;14.924;2023-04-25T00:11:25;4.85;;;3.80;;
63499;SDS011;49654;51.142;14.924;2023-04-25T00:13:52;6.55;;;4.43;;
63499;SDS011;49654;51.142;14.924;2023-04-25T00:16:19;5.03;;;3.80;;
63499;SDS011;49654;51.142;14.924;2023-04-25T00:18:46;5.07;;;4.10;;
63499;SDS011;49654;51.142;14.924;2023-04-25T00:21:18;5.22;;;4.43;;
63499;SDS011;49654;51.142;14.924;2023-04-25T00:23:45;6.35;;;4.47;;
63499;SDS011;49654;51.142;14.924;2023-04-25T00:26:12;5.72;;;4.55;;
63499;SDS011;49654;51.142;14.924;2023-04-25T00:28:39;5.95;;;3.97;;
63499;SDS011;49654;51.142;14.924;2023-04-25T00:31:06;5.47;;;4.40;;
63499;SDS011;49654;51.142;14.924;2023-04-25T00:33:33;6.82;;;4.68;;
63499;SDS011;49654;51.142;14.924;2023-04-25T00:36:00;5.68;;;5.07;;
63499;SDS011;49654;51.142;14.924;2023-04-25T00:38:28;5.85;;;4.95;;
63499;SDS011;49654;51.142;14.924;2023-04-25T00:40:55;6.68;;;5.15;;
63499;SDS011;49654;51.142;14.924;2023-04-25T00:43:23;5.80;;;5.20;;
63499;SDS011;49654;51.142;14.924;2023-04-25T00:45:51;5.78;;;5.20;;
63499;SDS011;49654;51.142;14.924;2023-04-25T00:48:21;5.88;;;5.28;;
63499;SDS011;49654;51.142;14.924;2023-04-25T00:50:51;6.97;;;5.90;;
63499;SDS011;49654;51.142;14.924;2023-04-25T00:53:19;7.43;;;5.60;;
63499;SDS011;49654;51.142;14.924;2023-04-25T00:55:48;6.97;;;6.15;;
63499;SDS011;49654;51.142;14.924;2023-04-25T00:58:16;10.13;;;6.70;;
63499;SDS011;49654;51.142;14.924;2023-04-25T01:00:43;6.90;;;5.72;;
63499;SDS011;49654;51.142;14.924;2023-04-25T01:03:12;8.52;;;6.15;;
63499;SDS011;49654;51.142;14.924;2023-04-25T01:05:39;7.47;;;6.20;;
63499;SDS011;49654;51.142;14.924;2023-04-25T01:08:07;7.45;;;6.20;;
63499;SDS011;49654;51.142;14.924;2023-04-25T01:10:34;9.45;;;6.13;;
63499;SDS011;49654;51.142;14.924;2023-04-25T01:13:03;7.53;;;6.35;;
63499;SDS011;49654;51.142;14.924;2023-04-25T01:15:30;8.65;;;6.35;;
63499;SDS011;49654;51.142;14.924;2023-04-25T01:17:57;8.02;;;6.18;;
63499;SDS011;49654;51.142;14.924;2023-04-25T01:20:26;7.55;;;6.28;;
63499;SDS011;49654;51.142;14.924;2023-04-25T01:22:55;8.43;;;5.97;;
63499;SDS011;49654;51.142;14.924;2023-04-25T01:25:22;9.35;;;6.22;;
63499;SDS011;49654;51.142;14.924;2023-04-25T01:27:49;7.32;;;5.43;;
63499;SDS011;49654;51.142;14.924;2023-04-25T01:30:16;6.80;;;5.88;;
63499;SDS011;49654;51.142;14.924;2023-04-25T01:32:44;7.95;;;5.55;;
63499;SDS011;49654;51.142;14.924;2023-04-25T01:35:11;6.68;;;5.50;;
63499;SDS011;49654;51.142;14.924;2023-04-25T01:37:39;8.88;;;6.15;;
63499;SDS011;49654;51.142;14.924;2023-04-25T01:40:08;9.07;;;5.60;;
63499;SDS011;49654;51.142;14.924;2023-04-25T01:42:38;6.68;;;5.55;;
63499;SDS011;49654;51.142;14.924;2023-04-25T01:45:07;9.77;;;5.95;;
63499;SDS011;49654;51.142;14.924;2023-04-25T01:47:35;7.60;;;5.50;;
63499;SDS011;49654;51.142;14.924;2023-04-25T01:50:02;7.22;;;5.60;;
63499;SDS011;49654;51.142;14.924;2023-04-25T01:52:29;6.10;;;5.43;;
63499;SDS011;49654;51.142;14.924;2023-04-25T01:54:57;6.82;;;5.57;;
63499;SDS011;49654;51.142;14.924;2023-04-25T01:57:27;6.57;;;5.10;;
63499;SDS011;49654;51.142;14.924;2023-04-25T01:59:54;7.47;;;5.13;;
63499;SDS011;49654;51.142;14.924;2023-04-25T02:02:25;7.40;;;5.57;;
63499;SDS011;49654;51.142;14.924;2023-04-25T02:04:52;8.52;;;5.32;;
63499;SDS011;49654;51.142;14.924;2023-04-25T02:07:20;7.57;;;5.97;;
63499;SDS011;49654;51.142;14.924;2023-04-25T02:09:47;6.80;;;5.90;;
63499;SDS011;49654;51.142;14.924;2023-04-25T02:12:14;7.45;;;5.55;;
63499;SDS011;49654;51.142;14.924;2023-04-25T02:14:42;6.18;;;5.57;;
63499;SDS011;49654;51.142;14.924;2023-04-25T02:17:09;9.40;;;5.97;;
63499;SDS011;49654;51.142;14.924;2023-04-25T02:19:35;8.30;;;5.97;;
63499;SDS011;49654;51.142;14.924;2023-04-25T02:22:02;7.40;;;6.47;;
63499;SDS011;49654;51.142;14.924;2023-04-25T02:24:29;8.13;;;6.57;;
63499;SDS011;49654;51.142;14.924;2023-04-25T02:26:57;6.50;;;5.90;;
63499;SDS011;49654;51.142;14.924;2023-04-25T02:29:24;6.65;;;6.05;;
63499;SDS011;49654;51.142;14.924;2023-04-25T02:31:52;7.25;;;6.55;;
63499;SDS011;49654;51.142;14.924;2023-04-25T02:34:19;9.13;;;7.15;;
63499;SDS011;49654;51.142;14.924;2023-04-25T02:36:47;7.60;;;6.80;;
63499;SDS011;49654;51.142;14.924;2023-04-25T02:39:14;10.15;;;6.85;;
63499;SDS011;49654;51.142;14.924;2023-04-25T02:41:41;8.70;;;7.47;;
63499;SDS011;49654;51.142;14.924;2023-04-25T02:44:08;8.50;;;6.70;;
63499;SDS011;49654;51.142;14.924;2023-04-25T02:46:35;9.63;;;7.10;;
63499;SDS011;49654;51.142;14.924;2023-04-25T02:49:03;8.65;;;7.15;;
63499;SDS011;49654;51.142;14.924;2023-04-25T02:51:30;9.50;;;6.70;;
63499;SDS011;49654;51.142;14.924;2023-04-25T02:53:58;7.82;;;6.47;;
63499;SDS011;49654;51.142;14.924;2023-04-25T02:56:25;9.23;;;7.00;;
63499;SDS011;49654;51.142;14.924;2023-04-25T02:58:52;8.30;;;7.03;;
63499;SDS011;49654;51.142;14.924;2023-04-25T03:01:19;7.47;;;6.10;;
63499;SDS011;49654;51.142;14.924;2023-04-25T03:03:46;8.90;;;7.00;;
63499;SDS011;49654;51.142;14.924;2023-04-25T03:06:14;8.18;;;6.15;;
63499;SDS011;49654;51.142;14.924;2023-04-25T03:08:42;8.20;;;6.90;;
63499;SDS011;49654;51.142;14.924;2023-04-25T03:11:08;7.55;;;6.72;;
63499;SDS011;49654;51.142;14.924;2023-04-25T03:13:35;7.20;;;6.40;;
63499;SDS011;49654;51.142;14.924;2023-04-25T03:16:03;6.70;;;6.00;;
63499;SDS011;49654;51.142;14.924;2023-04-25T03:18:30;8.85;;;6.20;;
63499;SDS011;49654;51.142;14.924;2023-04-25T03:20:57;7.07;;;6.38;;
63499;SDS011;49654;51.142;14.924;2023-04-25T03:23:25;8.45;;;6.40;;
63499;SDS011;49654;51.142;14.924;2023-04-25T03:25:52;10.38;;;6.47;;
63499;SDS011;49654;51.142;14.924;2023-04-25T03:28:19;7.50;;;6.32;;
63499;SDS011;49654;51.142;14.924;2023-04-25T03:30:46;9.45;;;6.68;;
63499;SDS011;49654;51.142;14.924;2023-04-25T03:33:13;8.10;;;6.72;;
63499;SDS011;49654;51.142;14.924;2023-04-25T03:35:40;7.40;;;6.57;;
63499;SDS011;49654;51.142;14.924;2023-04-25T03:38:08;9.48;;;7.00;;
63499;SDS011;49654;51.142;14.924;2023-04-25T03:40:36;9.38;;;6.38;;
63499;SDS011;49654;51.142;14.924;2023-04-25T03:43:03;8.02;;;6.82;;
63499;SDS011;49654;51.142;14.924;2023-04-25T03:45:30;7.50;;;6.70;;
63499;SDS011;49654;51.142;14.924;2023-04-25T03:47:57;7.93;;;6.35;;
63499;SDS011;49654;51.142;14.924;2023-04-25T03:50:24;8.70;;;7.22;;
63499;SDS011;49654;51.142;14.924;2023-04-25T03:52:51;9.18;;;7.35;;
63499;SDS011;49654;51.142;14.924;2023-04-25T03:55:18;8.88;;;6.90;;
63499;SDS011;49654;51.142;14.924;2023-04-25T03:57:46;9.07;;;6.95;;
63499;SDS011;49654;51.142;14.924;2023-04-25T04:00:14;9.45;;;7.00;;
63499;SDS011;49654;51.142;14.924;2023-04-25T04:02:41;11.02;;;7.88;;
63499;SDS011;49654;51.142;14.924;2023-04-25T04:05:08;10.70;;;7.50;;
63499;SDS011;49654;51.142;14.924;2023-04-25T04:07:35;8.88;;;7.20;;
63499;SDS011;49654;51.142;14.924;2023-04-25T04:10:05;9.93;;;7.53;;
63499;SDS011;49654;51.142;14.924;2023-04-25T04:12:32;10.35;;;7.35;;
63499;SDS011;49654;51.142;14.924;2023-04-25T04:15:01;11.85;;;7.78;;
63499;SDS011;49654;51.142;14.924;2023-04-25T04:17:29;10.23;;;7.85;;
63499;SDS011;49654;51.142;14.924;2023-04-25T04:19:56;9.90;;;7.43;;
63499;SDS011;49654;51.142;14.924;2023-04-25T04:22:23;11.32;;;8.50;;
63499;SDS011;49654;51.142;14.924;2023-04-25T04:24:50;12.30;;;7.90;;
63499;SDS011;49654;51.142;14.924;2023-04-25T04:27:17;9.93;;;7.07;;
63499;SDS011;49654;51.142;14.924;2023-04-25T04:29:44;10.95;;;7.60;;
63499;SDS011;49654;51.142;14.924;2023-04-25T04:32:13;11.55;;;8.15;;
63499;SDS011;49654;51.142;14.924;2023-04-25T04:34:41;10.23;;;8.02;;
63499;SDS011;49654;51.142;14.924;2023-04-25T04:37:08;10.15;;;8.50;;
63499;SDS011;49654;51.142;14.924;2023-04-25T04:39:35;10.68;;;8.40;;
63499;SDS011;49654;51.142;14.924;2023-04-25T04:42:02;12.82;;;8.85;;
63499;SDS011;49654;51.142;14.924;2023-04-25T04:44:30;10.85;;;8.20;;
63499;SDS011;49654;51.142;14.924;2023-04-25T04:46:59;13.52;;;8.05;;
63499;SDS011;49654;51.142;14.924;2023-04-25T04:49:28;9.95;;;8.05;;
63499;SDS011;49654;51.142;14.924;2023-04-25T04:51:55;15.38;;;8.77;;
63499;SDS011;49654;51.142;14.924;2023-04-25T04:54:22;13.57;;;8.38;;
63499;SDS011;49654;51.142;14.924;2023-04-25T04:56:49;10.23;;;8.57;;
63499;SDS011;49654;51.142;14.924;2023-04-25T04:59:17;13.43;;;8.50;;
63499;SDS011;49654;51.142;14.924;2023-04-25T05:01:44;11.85;;;8.20;;
63499;SDS011;49654;51.142;14.924;2023-04-25T05:04:12;10.93;;;8.15;;
63499;SDS011;49654;51.142;14.924;2023-04-25T05:06:40;11.07;;;8.30;;
63499;SDS011;49654;51.142;14.924;2023-04-25T05:09:07;12.23;;;8.18;;
63499;SDS011;49654;51.142;14.924;2023-04-25T05:11:34;11.20;;;7.70;;
63499;SDS011;49654;51.142;14.924;2023-04-25T05:14:01;10.18;;;7.55;;
63499;SDS011;49654;51.142;14.924;2023-04-25T05:16:28;10.63;;;7.13;;
63499;SDS011;49654;51.142;14.924;2023-04-25T05:18:55;11.65;;;7.65;;
63499;SDS011;49654;51.142;14.924;2023-04-25T05:21:23;9.20;;;7.13;;
63499;SDS011;49654;51.142;14.924;2023-04-25T05:23:51;9.50;;;7.38;;
63499;SDS011;49654;51.142;14.924;2023-04-25T05:26:18;10.55;;;7.15;;
63499;SDS011;49654;51.142;14.924;2023-04-25T05:28:47;9.93;;;7.15;;
63499;SDS011;49654;51.142;14.924;2023-04-25T05:31:16;9.52;;;6.28;;
63499;SDS011;49654;51.142;14.924;2023-04-25T05:33:43;9.27;;;6.88;;
63499;SDS011;49654;51.142;14.924;2023-04-25T05:36:10;11.20;;;6.18;;
63499;SDS011;49654;51.142;14.924;2023-04-25T05:38:37;7.50;;;5.28;;
63499;SDS011;49654;51.142;14.924;2023-04-25T05:41:05;7.00;;;5.13;;
63499;SDS011;49654;51.142;14.924;2023-04-25T05:43:32;7.65;;;5.18;;
63499;SDS011;49654;51.142;14.924;2023-04-25T05:45:59;10.10;;;5.43;;
63499;SDS011;49654;51.142;14.924;2023-04-25T05:48:27;7.75;;;5.80;;
63499;SDS011;49654;51.142;14.924;2023-04-25T05:50:54;7.88;;;5.72;;
63499;SDS011;49654;51.142;14.924;2023-04-25T05:53:20;5.88;;;4.50;;
63499;SDS011;49654;51.142;14.924;2023-04-25T05:55:48;7.68;;;4.65;;
63499;SDS011;49654;51.142;14.924;2023-04-25T05:58:16;7.95;;;5.07;;
63499;SDS011;49654;51.142;14.924;2023-04-25T06:00:43;5.75;;;4.65;;
63499;SDS011;49654;51.142;14.924;2023-04-25T06:03:11;7.15;;;4.00;;
63499;SDS011;49654;51.142;14.924;2023-04-25T06:05:41;6.57;;;3.58;;
63499;SDS011;49654;51.142;14.924;2023-04-25T06:08:08;7.97;;;3.92;;
63499;SDS011;49654;51.142;14.924;2023-04-25T06:10:35;7.95;;;3.60;;
63499;SDS011;49654;51.142;14.924;2023-04-25T06:13:03;5.35;;;3.80;;
63499;SDS011;49654;51.142;14.924;2023-04-25T06:15:32;6.70;;;3.50;;
63499;SDS011;49654;51.142;14.924;2023-04-25T06:17:59;12.55;;;4.07;;
63499;SDS011;49654;51.142;14.924;2023-04-25T06:20:26;7.70;;;3.63;;
63499;SDS011;49654;51.142;14.924;2023-04-25T06:22:53;9.38;;;3.58;;
63499;SDS011;49654;51.142;14.924;2023-04-25T06:25:20;7.07;;;3.92;;
63499;SDS011;49654;51.142;14.924;2023-04-25T06:27:47;5.82;;;3.95;;
63499;SDS011;49654;51.142;14.924;2023-04-25T06:30:14;8.02;;;4.15;;
63499;SDS011;49654;51.142;14.924;2023-04-25T06:32:45;6.47;;;3.63;;
63499;SDS011;49654;51.142;14.924;2023-04-25T06:35:27;8.15;;;4.32;;
63499;SDS011;49654;51.142;14.924;2023-04-25T06:37:54;8.02;;;4.05;;
63499;SDS011;49654;51.142;14.924;2023-04-25T06:40:27;8.90;;;4.30;;
63499;SDS011;49654;51.142;14.924;2023-04-25T06:42:59;9.70;;;4.53;;
63499;SDS011;49654;51.142;14.924;2023-04-25T06:45:36;9.05;;;4.50;;
63499;SDS011;49654;51.142;14.924;2023-04-25T06:48:43;8.70;;;3.97;;
63499;SDS011;49654;51.142;14.924;2023-04-25T06:51:20;9.43;;;4.50;;
63499;SDS011;49654;51.142;14.924;2023-04-25T06:54:15;8.57;;;4.65;;
63499;SDS011;49654;51.142;14.924;2023-04-25T06:56:52;8.18;;;4.40;;
63499;SDS011;49654;51.142;14.924;2023-04-25T06:59:59;9.40;;;4.18;;
63499;SDS011;49654;51.142;14.924;2023-04-25T07:02:37;8.57;;;4.30;;
63499;SDS011;49654;51.142;14.924;2023-04-25T07:05:14;10.27;;;3.92;;
63499;SDS011;49654;51.142;14.924;2023-04-25T07:07:44;6.63;;;4.38;;
63499;SDS011;49654;51.142;14.924;2023-04-25T07:10:11;6.88;;;4.03;;
63499;SDS011;49654;51.142;14.924;2023-04-25T07:12:41;8.65;;;4.57;;
63499;SDS011;49654;51.142;14.924;2023-04-25T07:15:11;7.10;;;4.38;;
63499;SDS011;49654;51.142;14.924;2023-04-25T07:17:50;6.93;;;3.85;;
63499;SDS011;49654;51.142;14.924;2023-04-25T07:20:19;6.30;;;3.33;;
63499;SDS011;49654;51.142;14.924;2023-04-25T07:22:46;8.45;;;3.60;;
63499;SDS011;49654;51.142;14.924;2023-04-25T07:25:13;7.63;;;3.83;;
63499;SDS011;49654;51.142;14.924;2023-04-25T07:27:40;10.15;;;3.70;;
63499;SDS011;49654;51.142;14.924;2023-04-25T07:30:07;6.10;;;3.90;;
63499;SDS011;49654;51.142;14.924;2023-04-25T07:32:34;9.07;;;4.15;;
63499;SDS011;49654;51.142;14.924;2023-04-25T07:35:01;7.57;;;3.90;;
63499;SDS011;49654;51.142;14.924;2023-04-25T07:37:30;6.80;;;3.70;;
63499;SDS011;49654;51.142;14.924;2023-04-25T07:39:57;10.68;;;4.00;;
63499;SDS011;49654;51.142;14.924;2023-04-25T07:42:24;5.80;;;3.35;;
63499;SDS011;49654;51.142;14.924;2023-04-25T07:44:51;7.43;;;3.35;;
63499;SDS011;49654;51.142;14.924;2023-04-25T07:47:18;5.03;;;3.15;;
63499;SDS011;49654;51.142;14.924;2023-04-25T07:49:45;5.80;;;2.92;;
63499;SDS011;49654;51.142;14.924;2023-04-25T07:52:12;4.93;;;2.97;;
63499;SDS011;49654;51.142;14.924;2023-04-25T07:54:40;7.22;;;2.83;;
63499;SDS011;49654;51.142;14.924;2023-04-25T07:57:07;5.47;;;2.67;;
63499;SDS011;49654;51.142;14.924;2023-04-25T07:59:34;4.65;;;3.45;;
63499;SDS011;49654;51.142;14.924;2023-04-25T08:02:01;5.85;;;3.10;;
63499;SDS011;49654;51.142;14.924;2023-04-25T08:04:28;8.27;;;3.00;;
63499;SDS011;49654;51.142;14.924;2023-04-25T08:06:55;4.68;;;2.80;;
63499;SDS011;49654;51.142;14.924;2023-04-25T08:09:22;5.03;;;2.55;;
63499;SDS011;49654;51.142;14.924;2023-04-25T08:11:50;5.13;;;2.88;;
63499;SDS011;49654;51.142;14.924;2023-04-25T08:14:17;5.50;;;3.72;;
63499;SDS011;49654;51.142;14.924;2023-04-25T08:16:44;6.65;;;2.92;;
63499;SDS011;49654;51.142;14.924;2023-04-25T08:19:11;7.15;;;3.33;;
63499;SDS011;49654;51.142;14.924;2023-04-25T08:21:38;4.90;;;2.97;;
63499;SDS011;49654;51.142;14.924;2023-04-25T08:24:05;7.57;;;3.40;;
63499;SDS011;49654;51.142;14.924;2023-04-25T08:26:32;7.82;;;3.42;;
63499;SDS011;49654;51.142;14.924;2023-04-25T08:29:01;5.75;;;3.28;;
63499;SDS011;49654;51.142;14.924;2023-04-25T08:31:28;7.15;;;3.30;;
63499;SDS011;49654;51.142;14.924;2023-04-25T08:33:55;6.18;;;3.03;;
63499;SDS011;49654;51.142;14.924;2023-04-25T08:36:22;6.47;;;3.60;;
63499;SDS011;49654;51.142;14.924;2023-04-25T08:38:49;5.82;;;2.92;;
63499;SDS011;49654;51.142;14.924;2023-04-25T08:41:16;6.60;;;2.80;;
63499;SDS011;49654;51.142;14.924;2023-04-25T08:43:46;6.82;;;2.97;;
63499;SDS011;49654;51.142;14.924;2023-04-25T08:46:17;7.70;;;3.13;;
63499;SDS011;49654;51.142;14.924;2023-04-25T08:48:45;5.93;;;3.15;;
63499;SDS011;49654;51.142;14.924;2023-04-25T08:51:14;5.10;;;2.70;;
63499;SDS011;49654;51.142;14.924;2023-04-25T08:53:47;3.60;;;2.35;;
63499;SDS011;49654;51.142;14.924;2023-04-25T08:56:17;3.83;;;2.45;;
63499;SDS011;49654;51.142;14.924;2023-04-25T08:58:47;5.45;;;2.40;;
63499;SDS011;49654;51.142;14.924;2023-04-25T09:01:19;3.65;;;2.40;;
63499;SDS011;49654;51.142;14.924;2023-04-25T09:03:46;8.95;;;3.10;;
63499;SDS011;49654;51.142;14.924;2023-04-25T09:06:14;6.22;;;2.65;;
63499;SDS011;49654;51.142;14.924;2023-04-25T09:08:42;3.65;;;2.20;;
63499;SDS011;49654;51.142;14.924;2023-04-25T09:11:09;4.28;;;2.30;;
63499;SDS011;49654;51.142;14.924;2023-04-25T09:13:36;5.47;;;2.60;;
63499;SDS011;49654;51.142;14.924;2023-04-25T09:16:03;6.28;;;2.40;;
63499;SDS011;49654;51.142;14.924;2023-04-25T09:18:32;5.40;;;2.50;;
63499;SDS011;49654;51.142;14.924;2023-04-25T09:21:04;5.68;;;2.40;;
63499;SDS011;49654;51.142;14.924;2023-04-25T09:23:38;3.15;;;2.10;;
63499;SDS011;49654;51.142;14.924;2023-04-25T09:26:06;6.28;;;2.42;;
63499;SDS011;49654;51.142;14.924;2023-04-25T09:28:34;6.32;;;2.80;;
63499;SDS011;49654;51.142;14.924;2023-04-25T09:31:03;5.72;;;2.88;;
63499;SDS011;49654;51.142;14.924;2023-04-25T09:33:32;6.70;;;2.85;;
63499;SDS011;49654;51.142;14.924;2023-04-25T09:36:02;4.20;;;2.03;;
63499;SDS011;49654;51.142;14.924;2023-04-25T09:38:30;4.57;;;2.15;;
63499;SDS011;49654;51.142;14.924;2023-04-25T09:40:58;4.32;;;2.35;;
63499;SDS011;49654;51.142;14.924;2023-04-25T09:43:26;7.75;;;2.38;;
63499;SDS011;49654;51.142;14.924;2023-04-25T09:45:54;3.17;;;1.88;;
63499;SDS011;49654;51.142;14.924;2023-04-25T09:48:25;4.65;;;2.03;;
63499;SDS011;49654;51.142;14.924;2023-04-25T09:51:07;4.80;;;2.38;;
63499;SDS011;49654;51.142;14.924;2023-04-25T09:53:36;3.30;;;2.20;;
63499;SDS011;49654;51.142;14.924;2023-04-25T09:56:04;3.58;;;2.10;;
63499;SDS011;49654;51.142;14.924;2023-04-25T09:58:33;3.85;;;1.85;;
63499;SDS011;49654;51.142;14.924;2023-04-25T10:01:02;5.53;;;2.40;;
63499;SDS011;49654;51.142;14.924;2023-04-25T10:03:32;5.13;;;2.40;;
63499;SDS011;49654;51.142;14.924;2023-04-25T10:06:01;3.97;;;2.22;;
63499;SDS011;49654;51.142;14.924;2023-04-25T10:08:32;3.95;;;2.15;;
63499;SDS011;49654;51.142;14.924;2023-04-25T10:11:00;4.90;;;2.22;;
63499;SDS011;49654;51.142;14.924;2023-04-25T10:13:29;4.53;;;2.20;;
63499;SDS011;49654;51.142;14.924;2023-04-25T10:15:57;5.25;;;2.55;;
63499;SDS011;49654;51.142;14.924;2023-04-25T10:18:26;4.28;;;2.53;;
63499;SDS011;49654;51.142;14.924;2023-04-25T10:20:54;5.47;;;3.25;;
63499;SDS011;49654;51.142;14.924;2023-04-25T10:23:21;4.72;;;2.50;;
63499;SDS011;49654;51.142;14.924;2023-04-25T10:25:52;4.30;;;2.40;;
63499;SDS011;49654;51.142;14.924;2023-04-25T10:28:20;4.95;;;1.98;;
63499;SDS011;49654;51.142;14.924;2023-04-25T10:30:56;4.05;;;2.25;;
63499;SDS011;49654;51.142;14.924;2023-04-25T10:33:32;2.72;;;1.88;;
63499;SDS011;49654;51.142;14.924;2023-04-25T10:36:08;3.45;;;2.50;;
63499;SDS011;49654;51.142;14.924;2023-04-25T10:38:39;5.15;;;2.30;;
63499;SDS011;49654;51.142;14.924;2023-04-25T10:41:10;6.55;;;2.30;;
63499;SDS011;49654;51.142;14.924;2023-04-25T10:43:38;4.53;;;2.53;;
63499;SDS011;49654;51.142;14.924;2023-04-25T10:46:12;3.85;;;2.00;;
63499;SDS011;49654;51.142;14.924;2023-04-25T10:48:45;3.38;;;2.40;;
63499;SDS011;49654;51.142;14.924;2023-04-25T10:51:17;3.33;;;2.00;;
63499;SDS011;49654;51.142;14.924;2023-04-25T10:53:46;4.38;;;2.70;;
63499;SDS011;49654;51.142;14.924;2023-04-25T10:56:18;7.70;;;3.08;;
63499;SDS011;49654;51.142;14.924;2023-04-25T10:58:46;5.57;;;3.28;;
63499;SDS011;49654;51.142;14.924;2023-04-25T11:01:13;4.45;;;2.90;;
63499;SDS011;49654;51.142;14.924;2023-04-25T11:03:42;3.67;;;2.53;;
63499;SDS011;49654;51.142;14.924;2023-04-25T11:06:18;3.85;;;2.80;;
63499;SDS011;49654;51.142;14.924;2023-04-25T11:08:52;7.53;;;3.45;;
63499;SDS011;49654;51.142;14.924;2023-04-25T11:11:20;3.33;;;2.80;;
63499;SDS011;49654;51.142;14.924;2023-04-25T11:13:48;5.65;;;2.90;;
63499;SDS011;49654;51.142;14.924;2023-04-25T11:16:16;5.70;;;2.72;;
63499;SDS011;49654;51.142;14.924;2023-04-25T11:18:43;5.35;;;2.83;;
63499;SDS011;49654;51.142;14.924;2023-04-25T11:21:11;6.53;;;3.40;;
63499;SDS011;49654;51.142;14.924;2023-04-25T11:23:38;6.45;;;3.40;;
63499;SDS011;49654;51.142;14.924;2023-04-25T11:26:05;5.32;;;3.25;;
63499;SDS011;49654;51.142;14.924;2023-04-25T11:28:34;6.65;;;3.67;;
63499;SDS011;49654;51.142;14.924;2023-04-25T11:31:02;6.45;;;4.10;;
63499;SDS011;49654;51.142;14.924;2023-04-25T11:33:30;9.20;;;4.35;;
63499;SDS011;49654;51.142;14.924;2023-04-25T11:35:57;4.57;;;3.25;;
63499;SDS011;49654;51.142;14.924;2023-04-25T11:38:24;6.00;;;2.95;;
63499;SDS011;49654;51.142;14.924;2023-04-25T11:40:52;5.68;;;3.50;;
63499;SDS011;49654;51.142;14.924;2023-04-25T11:43:20;6.32;;;3.20;;
63499;SDS011;49654;51.142;14.924;2023-04-25T11:45:49;4.93;;;2.80;;
63499;SDS011;49654;51.142;14.924;2023-04-25T11:48:17;3.75;;;2.30;;
63499;SDS011;49654;51.142;14.924;2023-04-25T11:50:46;4.28;;;2.58;;
63499;SDS011;49654;51.142;14.924;2023-04-25T11:53:13;4.88;;;2.60;;
63499;SDS011;49654;51.142;14.924;2023-04-25T11:55:40;4.32;;;2.85;;
63499;SDS011;49654;51.142;14.924;2023-04-25T11:58:07;3.65;;;2.38;;
63499;SDS011;49654;51.142;14.924;2023-04-25T12:00:35;4.03;;;2.65;;
63499;SDS011;49654;51.142;14.924;2023-04-25T12:03:03;3.72;;;2.53;;
63499;SDS011;49654;51.142;14.924;2023-04-25T12:05:30;2.75;;;2.40;;
63499;SDS011;49654;51.142;14.924;2023-04-25T12:08:09;3.35;;;2.40;;
63499;SDS011;49654;51.142;14.924;2023-04-25T12:10:40;3.35;;;2.28;;
63499;SDS011;49654;51.142;14.924;2023-04-25T12:13:17;3.85;;;2.33;;
63499;SDS011;49654;51.142;14.924;2023-04-25T12:15:46;4.78;;;2.75;;
63499;SDS011;49654;51.142;14.924;2023-04-25T12:18:14;6.35;;;2.97;;
63499;SDS011;49654;51.142;14.924;2023-04-25T12:20:41;6.63;;;2.78;;
63499;SDS011;49654;51.142;14.924;2023-04-25T12:23:09;3.33;;;2.25;;
63499;SDS011;49654;51.142;14.924;2023-04-25T12:25:37;3.67;;;2.40;;
63499;SDS011;49654;51.142;14.924;2023-04-25T12:28:14;6.80;;;2.75;;
63499;SDS011;49654;51.142;14.924;2023-04-25T12:30:54;8.75;;;3.10;;
63499;SDS011;49654;51.142;14.924;2023-04-25T12:33:24;5.95;;;2.80;;
63499;SDS011;49654;51.142;14.924;2023-04-25T12:35:52;6.22;;;3.13;;
63499;SDS011;49654;51.142;14.924;2023-04-25T12:38:20;5.07;;;2.97;;
63499;SDS011;49654;51.142;14.924;2023-04-25T12:40:48;5.82;;;3.20;;
63499;SDS011;49654;51.142;14.924;2023-04-25T12:43:15;4.28;;;2.92;;
63499;SDS011;49654;51.142;14.924;2023-04-25T12:45:42;3.22;;;2.55;;
63499;SDS011;49654;51.142;14.924;2023-04-25T12:48:09;4.38;;;2.80;;
63499;SDS011;49654;51.142;14.924;2023-04-25T12:50:37;3.67;;;2.72;;
63499;SDS011;49654;51.142;14.924;2023-04-25T12:53:04;5.95;;;3.00;;
63499;SDS011;49654;51.142;14.924;2023-04-25T12:55:32;6.97;;;3.05;;
63499;SDS011;49654;51.142;14.924;2023-04-25T12:57:59;3.95;;;2.97;;
63499;SDS011;49654;51.142;14.924;2023-04-25T13:00:26;5.97;;;4.00;;
63499;SDS011;49654;51.142;14.924;2023-04-25T13:02:53;5.30;;;3.65;;
63499;SDS011;49654;51.142;14.924;2023-04-25T13:05:20;4.68;;;3.78;;
63499;SDS011;49654;51.142;14.924;2023-04-25T13:07:48;7.75;;;4.75;;
63499;SDS011;49654;51.142;14.924;2023-04-25T13:10:15;6.47;;;4.70;;
63499;SDS011;49654;51.142;14.924;2023-04-25T13:12:43;5.50;;;4.50;;
63499;SDS011;49654;51.142;14.924;2023-04-25T13:15:11;6.05;;;4.32;;
63499;SDS011;49654;51.142;14.924;2023-04-25T13:17:38;5.63;;;4.22;;
63499;SDS011;49654;51.142;14.924;2023-04-25T13:20:06;5.15;;;4.43;;
63499;SDS011;49654;51.142;14.924;2023-04-25T13:22:35;5.10;;;4.32;;
63499;SDS011;49654;51.142;14.924;2023-04-25T13:25:04;6.97;;;4.68;;
63499;SDS011;49654;51.142;14.924;2023-04-25T13:27:33;5.88;;;4.55;;
63499;SDS011;49654;51.142;14.924;2023-04-25T13:30:02;6.90;;;4.82;;
63499;SDS011;49654;51.142;14.924;2023-04-25T13:32:33;6.57;;;4.30;;
63499;SDS011;49654;51.142;14.924;2023-04-25T13:35:01;6.45;;;4.80;;
63499;SDS011;49654;51.142;14.924;2023-04-25T13:37:28;4.43;;;4.00;;
63499;SDS011;49654;51.142;14.924;2023-04-25T13:39:58;7.13;;;4.07;;
63499;SDS011;49654;51.142;14.924;2023-04-25T13:42:30;5.95;;;3.92;;
63499;SDS011;49654;51.142;14.924;2023-04-25T13:44:57;6.07;;;4.47;;
63499;SDS011;49654;51.142;14.924;2023-04-25T13:47:25;6.32;;;4.18;;
63499;SDS011;49654;51.142;14.924;2023-04-25T13:49:53;8.27;;;4.47;;
63499;SDS011;49654;51.142;14.924;2023-04-25T13:52:20;8.82;;;4.97;;
63499;SDS011;49654;51.142;14.924;2023-04-25T13:54:47;10.27;;;6.43;;
63499;SDS011;49654;51.142;14.924;2023-04-25T13:57:14;8.68;;;4.85;;
63499;SDS011;49654;51.142;14.924;2023-04-25T13:59:42;7.35;;;4.88;;
63499;SDS011;49654;51.142;14.924;2023-04-25T14:02:09;6.20;;;4.57;;
63499;SDS011;49654;51.142;14.924;2023-04-25T14:04:37;8.88;;;4.15;;
63499;SDS011;49654;51.142;14.924;2023-04-25T14:07:04;12.02;;;5.32;;
63499;SDS011;49654;51.142;14.924;2023-04-25T14:09:31;6.55;;;2.90;;
63499;SDS011;49654;51.142;14.924;2023-04-25T14:11:58;6.18;;;2.80;;
63499;SDS011;49654;51.142;14.924;2023-04-25T14:14:26;5.75;;;2.80;;
63499;SDS011;49654;51.142;14.924;2023-04-25T14:16:54;10.35;;;2.88;;
63499;SDS011;49654;51.142;14.924;2023-04-25T14:19:22;8.00;;;2.95;;
63499;SDS011;49654;51.142;14.924;2023-04-25T14:21:49;6.00;;;2.92;;
63499;SDS011;49654;51.142;14.924;2023-04-25T14:24:16;9.70;;;3.30;;
63499;SDS011;49654;51.142;14.924;2023-04-25T14:26:49;8.45;;;3.08;;
63499;SDS011;49654;51.142;14.924;2023-04-25T14:29:18;6.00;;;2.55;;
63499;SDS011;49654;51.142;14.924;2023-04-25T14:31:45;9.35;;;2.97;;
63499;SDS011;49654;51.142;14.924;2023-04-25T14:34:14;7.22;;;2.90;;
63499;SDS011;49654;51.142;14.924;2023-04-25T14:36:41;9.65;;;2.95;;
63499;SDS011;49654;51.142;14.924;2023-04-25T14:39:08;8.05;;;2.90;;
63499;SDS011;49654;51.142;14.924;2023-04-25T14:41:35;7.10;;;3.47;;